createdAt,value
2019-01-16T00:01:32.741Z,71.12
2019-01-16T00:04:19.642Z,71.17
2019-01-16T00:07:03.086Z,71.35
2019-01-16T00:10:03.503Z,71.58
2019-01-16T00:12:51.720Z,71.57
2019-01-16T00:15:48.907Z,71.53
2019-01-16T00:18:40.125Z,71.39
2019-01-16T00:21:27.226Z,71.41
2019-01-16T00:24:13.268Z,71.41
2019-01-16T00:27:02.364Z,71.47
2019-01-16T00:30:08.669Z,71.40
2019-01-16T00:32:56.887Z,71.39
2019-01-16T00:35:43.931Z,71.29
2019-01-16T00:38:35.373Z,71.28
2019-01-16T00:41:15.591Z,71.20
2019-01-16T00:44:12.658Z,71.33
2019-01-16T00:47:12.957Z,71.49
2019-01-16T00:49:59.987Z,71.24
2019-01-16T00:52:47.104Z,71.20
2019-01-16T00:55:35.319Z,71.06
2019-01-16T00:58:15.031Z,70.84
2019-01-16T01:01:02.389Z,70.99
2019-01-16T01:04:02.628Z,71.04
2019-01-16T01:07:00.189Z,70.99
2019-01-16T01:09:41.415Z,70.94
2019-01-16T01:12:21.167Z,70.91
2019-01-16T01:15:08.226Z,71.01
2019-01-16T01:18:14.833Z,70.84
2019-01-16T01:21:05.827Z,70.85
2019-01-16T01:24:06.235Z,70.89
2019-01-16T01:26:52.914Z,71.05
2019-01-16T01:29:40.001Z,71.03
2019-01-16T01:32:25.597Z,70.81
2019-01-16T01:35:12.832Z,70.92
2019-01-16T01:37:59.632Z,70.94
2019-01-16T01:40:50.900Z,71.08
2019-01-16T01:43:30.972Z,71.13
2019-01-16T01:46:13.818Z,71.01
2019-01-16T01:49:14.075Z,71.34
2019-01-16T01:52:12.180Z,71.07
2019-01-16T01:54:59.244Z,71.04
2019-01-16T01:57:56.600Z,71.25
2019-01-16T02:00:54.887Z,70.94
2019-01-16T02:03:55.070Z,71.01
2019-01-16T02:06:33.512Z,70.95
2019-01-16T02:09:29.643Z,71.04
2019-01-16T02:12:16.769Z,71.15
2019-01-16T02:15:02.153Z,71.04
2019-01-16T02:17:51.668Z,70.95
2019-01-16T02:20:40.001Z,71.09
2019-01-16T02:23:23.537Z,70.93
2019-01-16T02:26:08.323Z,70.91
2019-01-16T02:28:56.887Z,70.89
2019-01-16T02:31:43.950Z,70.77
2019-01-16T02:34:32.142Z,70.47
2019-01-16T02:37:09.715Z,70.58
2019-01-16T02:39:53.306Z,70.33
2019-01-16T02:42:34.128Z,70.34
2019-01-16T02:45:22.327Z,70.19
2019-01-16T02:48:15.312Z,69.84
2019-01-16T02:51:02.364Z,69.75
2019-01-16T02:54:06.124Z,69.75
2019-01-16T02:57:03.070Z,69.80
2019-01-16T03:00:03.724Z,69.53
2019-01-16T03:02:51.962Z,69.54
2019-01-16T03:05:39.073Z,69.47
2019-01-16T03:08:20.859Z,69.21
2019-01-16T03:11:09.162Z,69.30
2019-01-16T03:14:06.502Z,69.09
2019-01-16T03:16:53.600Z,69.27
2019-01-16T03:19:53.832Z,69.28
2019-01-16T03:22:40.759Z,69.28
2019-01-16T03:25:37.846Z,69.23
2019-01-16T03:28:28.925Z,69.49
2019-01-16T03:31:19.900Z,68.97
2019-01-16T03:34:06.792Z,69.07
2019-01-16T03:36:58.070Z,68.73
2019-01-16T03:40:01.681Z,68.71
2019-01-16T03:42:42.169Z,68.54
2019-01-16T03:45:24.388Z,68.87
2019-01-16T03:48:11.491Z,68.46
2019-01-16T03:51:04.853Z,68.47
2019-01-16T03:54:11.541Z,68.66
2019-01-16T03:57:11.429Z,68.42
2019-01-16T03:59:59.618Z,68.59
2019-01-16T04:02:46.426Z,68.66
2019-01-16T04:05:33.281Z,68.62
2019-01-16T04:08:30.899Z,68.65
2019-01-16T04:11:34.156Z,68.65
2019-01-16T04:14:14.854Z,68.33
2019-01-16T04:17:01.709Z,68.54
2019-01-16T04:19:40.054Z,68.46
2019-01-16T04:22:37.545Z,68.43
2019-01-16T04:25:24.868Z,68.07
2019-01-16T04:28:11.715Z,68.15
2019-01-16T04:31:07.093Z,67.78
2019-01-16T04:33:54.493Z,67.65
2019-01-16T04:36:48.925Z,67.56
2019-01-16T04:39:43.417Z,67.47
2019-01-16T04:42:23.154Z,67.60
2019-01-16T04:45:20.473Z,67.27
2019-01-16T04:48:00.854Z,67.20
2019-01-16T04:50:47.834Z,67.32
2019-01-16T04:53:34.701Z,66.92
2019-01-16T04:56:22.186Z,67.17
2019-01-16T04:59:13.598Z,67.11
2019-01-16T05:02:05.045Z,67.20
2019-01-16T05:05:08.490Z,67.20
2019-01-16T05:07:55.656Z,67.08
2019-01-16T05:10:49.943Z,67.35
2019-01-16T05:13:41.209Z,67.32
2019-01-16T05:16:32.240Z,67.17
2019-01-16T05:19:19.224Z,66.66
2019-01-16T05:22:13.518Z,66.87
2019-01-16T05:25:06.902Z,67.10
2019-01-16T05:27:58.186Z,66.99
2019-01-16T05:30:42.457Z,66.97
2019-01-16T05:33:20.272Z,67.10
2019-01-16T05:36:14.485Z,67.05
2019-01-16T05:39:11.705Z,66.96
2019-01-16T05:41:58.818Z,66.96
2019-01-16T05:44:50.074Z,66.56
2019-01-16T05:47:30.031Z,66.27
2019-01-16T05:50:07.769Z,66.53
2019-01-16T05:52:48.678Z,66.75
2019-01-16T05:55:31.654Z,66.32
2019-01-16T05:58:10.971Z,66.15
2019-01-16T06:01:12.860Z,66.43
2019-01-16T06:04:13.352Z,66.24
2019-01-16T06:06:59.948Z,66.16
2019-01-16T06:09:50.938Z,65.98
2019-01-16T06:12:42.074Z,66.20
2019-01-16T06:15:27.365Z,65.99
2019-01-16T06:18:28.145Z,65.87
2019-01-16T06:21:16.338Z,65.60
2019-01-16T06:24:04.900Z,65.42
2019-01-16T06:27:05.483Z,65.35
2019-01-16T06:30:09.374Z,65.16
2019-01-16T06:33:06.901Z,65.25
2019-01-16T06:36:01.401Z,65.21
2019-01-16T06:38:58.336Z,65.25
2019-01-16T06:41:35.946Z,65.15
2019-01-16T06:44:30.883Z,65.11
2019-01-16T06:47:25.146Z,65.42
2019-01-16T06:50:16.836Z,65.73
2019-01-16T06:53:10.922Z,65.71
2019-01-16T06:56:11.185Z,65.32
2019-01-16T06:59:14.504Z,65.28
2019-01-16T07:02:01.288Z,65.31
2019-01-16T07:04:48.288Z,65.65
2019-01-16T07:07:35.111Z,65.10
2019-01-16T07:10:19.809Z,65.25
2019-01-16T07:12:57.778Z,65.58
2019-01-16T07:15:47.982Z,65.39
2019-01-16T07:18:37.734Z,65.26
2019-01-16T07:21:24.914Z,65.02
2019-01-16T07:24:07.347Z,65.39
2019-01-16T07:26:58.410Z,65.55
2019-01-16T07:30:04.750Z,64.90
2019-01-16T07:32:52.970Z,65.11
2019-01-16T07:35:41.190Z,65.19
2019-01-16T07:38:44.866Z,64.62
2019-01-16T07:41:45.037Z,64.50
2019-01-16T07:44:27.908Z,64.69
2019-01-16T07:47:09.903Z,64.44
2019-01-16T07:49:57.044Z,64.32
2019-01-16T07:52:55.442Z,64.13
2019-01-16T07:55:49.973Z,64.37
2019-01-16T07:58:27.440Z,63.96
2019-01-16T08:01:26.539Z,64.20
2019-01-16T08:04:20.964Z,64.18
2019-01-16T08:07:09.047Z,64.01
2019-01-16T08:10:06.570Z,63.61
2019-01-16T08:13:06.296Z,63.88
2019-01-16T08:15:54.519Z,63.90
2019-01-16T08:19:02.072Z,63.52
2019-01-16T08:21:49.042Z,63.75
2019-01-16T08:24:46.345Z,63.79
2019-01-16T08:27:43.505Z,63.39
2019-01-16T08:30:32.139Z,63.40
2019-01-16T08:33:26.222Z,63.18
2019-01-16T08:36:23.602Z,63.22
2019-01-16T08:39:14.778Z,63.20
2019-01-16T08:42:08.989Z,63.15
2019-01-16T08:45:00.348Z,63.25
2019-01-16T08:47:57.926Z,63.02
2019-01-16T08:50:46.141Z,62.54
2019-01-16T08:53:31.176Z,62.19
2019-01-16T08:56:21.190Z,62.10
2019-01-16T08:59:15.436Z,61.20
2019-01-16T09:02:02.234Z,61.35
2019-01-16T09:04:49.376Z,61.22
2019-01-16T09:07:36.693Z,60.48
2019-01-16T09:10:16.810Z,59.92
2019-01-16T09:13:01.484Z,60.19
2019-01-16T09:16:01.859Z,60.12
2019-01-16T09:18:56.350Z,58.56
2019-01-16T09:21:50.635Z,58.77
2019-01-16T09:24:33.263Z,59.73
2019-01-16T09:27:39.643Z,60.16
2019-01-16T09:30:32.583Z,59.92
2019-01-16T09:33:19.385Z,59.96
2019-01-16T09:35:56.656Z,59.04
2019-01-16T09:38:45.579Z,59.16
2019-01-16T09:41:36.820Z,58.98
2019-01-16T09:44:23.922Z,58.29
2019-01-16T09:47:04.619Z,57.98
2019-01-16T09:49:50.563Z,58.23
2019-01-16T09:52:40.334Z,57.66
2019-01-16T09:55:24.156Z,57.63
2019-01-16T09:58:21.488Z,56.73
2019-01-16T10:01:08.566Z,57.21
2019-01-16T10:03:52.367Z,56.69
2019-01-16T10:06:52.963Z,55.95
2019-01-16T10:09:39.918Z,55.98
2019-01-16T10:12:37.171Z,54.82
2019-01-16T10:15:27.646Z,53.57
2019-01-16T10:18:09.590Z,53.85
2019-01-16T10:20:55.445Z,54.37
2019-01-16T10:23:38.909Z,54.05
2019-01-16T10:26:27.146Z,53.35
2019-01-16T10:29:17.022Z,54.01
2019-01-16T10:31:56.474Z,52.45
2019-01-16T10:35:00.598Z,53.55
2019-01-16T10:38:00.781Z,53.86
2019-01-16T10:40:47.752Z,54.17
2019-01-16T10:43:39.098Z,54.08
2019-01-16T10:46:30.060Z,53.59
2019-01-16T10:49:24.351Z,53.92
2019-01-16T10:52:15.351Z,54.31
2019-01-16T10:55:06.632Z,54.09
2019-01-16T10:58:06.918Z,54.03
2019-01-16T11:00:47.219Z,52.59
2019-01-16T11:03:41.534Z,53.51
2019-01-16T11:06:29.750Z,53.52
2019-01-16T11:09:24.314Z,54.28
2019-01-16T11:12:11.162Z,55.38
2019-01-16T11:15:05.517Z,54.45
2019-01-16T11:17:53.699Z,55.07
2019-01-16T11:20:54.241Z,54.71
2019-01-16T11:23:42.595Z,55.25
2019-01-16T11:26:27.997Z,55.95
2019-01-16T11:29:17.752Z,56.48
2019-01-16T11:32:08.910Z,56.81
2019-01-16T11:34:56.144Z,57.07
2019-01-16T11:37:51.493Z,56.60
2019-01-16T11:40:41.633Z,56.35
2019-01-16T11:46:14.543Z,55.57
2019-01-16T11:49:18.254Z,55.95
2019-01-16T11:52:15.514Z,54.51
2019-01-16T11:54:59.823Z,53.25
2019-01-16T11:57:56.977Z,53.35
2019-01-16T12:00:36.574Z,53.24
2019-01-16T12:03:27.610Z,51.32
2019-01-16T12:06:10.846Z,52.09
2019-01-16T12:08:59.036Z,51.87
2019-01-16T12:11:47.386Z,53.28
2019-01-16T12:14:26.411Z,52.77
2019-01-16T12:17:13.330Z,53.07
2019-01-16T12:20:04.502Z,53.79
2019-01-16T12:22:45.003Z,53.38
2019-01-16T12:25:21.144Z,54.26
2019-01-16T12:28:08.059Z,53.74
2019-01-16T12:30:57.304Z,54.83
2019-01-16T12:33:44.199Z,55.15
2019-01-16T12:36:38.508Z,54.57
2019-01-16T12:39:27.845Z,53.76
2019-01-16T12:42:19.105Z,53.45
2019-01-16T12:45:13.218Z,52.54
2019-01-16T12:47:51.123Z,50.62
2019-01-16T12:50:38.076Z,49.13
2019-01-16T12:53:29.018Z,47.62
2019-01-16T12:56:15.910Z,48.55
2019-01-16T12:59:04.103Z,48.36
2019-01-16T13:01:54.798Z,49.37
2019-01-16T13:04:42.998Z,47.16
2019-01-16T13:07:29.793Z,46.89
2019-01-16T13:10:17.122Z,46.55
2019-01-16T13:13:09.368Z,45.67
2019-01-16T13:16:09.608Z,46.89
2019-01-16T13:18:54.460Z,46.90
2019-01-16T13:21:41.639Z,46.38
2019-01-16T13:24:29.880Z,48.30
2019-01-16T13:27:18.084Z,48.90
2019-01-16T13:30:15.586Z,47.86
2019-01-16T13:33:06.142Z,48.87
2019-01-16T13:35:55.835Z,50.09
2019-01-16T13:38:46.874Z,49.77
2019-01-16T13:41:29.878Z,50.11
2019-01-16T13:44:18.096Z,51.63
2019-01-16T13:47:09.618Z,52.16
2019-01-16T13:50:04.783Z,53.07
2019-01-16T13:52:49.302Z,53.17
2019-01-16T13:55:46.546Z,53.38
2019-01-16T13:58:24.101Z,53.51
2019-01-16T14:01:13.337Z,53.63
2019-01-16T14:04:13.580Z,54.20
2019-01-16T14:07:20.190Z,54.69
2019-01-16T14:10:11.420Z,54.70
2019-01-16T14:12:58.223Z,55.39
2019-01-16T14:15:46.046Z,55.19
2019-01-16T14:18:37.496Z,55.71
2019-01-16T14:21:24.678Z,56.77
2019-01-16T14:24:15.884Z,56.73
2019-01-16T14:26:56.443Z,58.03
2019-01-16T14:29:47.511Z,57.95
2019-01-16T14:32:47.926Z,57.89
2019-01-16T14:35:48.470Z,58.27
2019-01-16T14:38:55.060Z,58.16
2019-01-16T14:41:35.270Z,59.21
2019-01-16T14:44:35.902Z,58.90
2019-01-16T14:47:24.495Z,59.11
2019-01-16T14:50:16.983Z,59.54
2019-01-16T14:53:11.410Z,59.91
2019-01-16T14:56:08.795Z,59.71
2019-01-16T14:58:55.370Z,59.82
2019-01-16T15:01:43.603Z,59.52
2019-01-16T15:04:34.590Z,58.81
2019-01-16T15:07:28.897Z,59.40
2019-01-16T15:10:17.099Z,59.70
2019-01-16T15:13:04.183Z,59.77
2019-01-16T15:15:47.879Z,59.40
2019-01-16T15:18:34.764Z,59.84
2019-01-16T15:21:20.882Z,59.77
2019-01-16T15:24:09.107Z,59.34
2019-01-16T15:26:56.258Z,59.80
2019-01-16T15:29:59.819Z,59.32
2019-01-16T15:32:50.837Z,59.70
2019-01-16T15:35:47.996Z,59.48
2019-01-16T15:38:33.647Z,59.83
2019-01-16T15:41:21.023Z,60.25
2019-01-16T15:44:15.419Z,60.40
2019-01-16T15:46:56.388Z,60.29
2019-01-16T15:49:39.035Z,60.87
2019-01-16T15:52:25.901Z,60.49
2019-01-16T15:55:13.807Z,60.52
2019-01-16T15:58:00.612Z,59.92
2019-01-16T16:00:48.942Z,60.51
2019-01-16T16:03:36.068Z,60.55
2019-01-16T16:06:22.995Z,60.97
2019-01-16T16:09:01.618Z,60.73
2019-01-16T16:11:48.954Z,60.47
2019-01-16T16:14:28.463Z,60.63
2019-01-16T16:17:12.224Z,60.83
2019-01-16T16:19:59.272Z,60.84
2019-01-16T16:22:38.987Z,60.85
2019-01-16T16:25:16.946Z,61.07
2019-01-16T16:28:11.016Z,61.33
2019-01-16T16:31:17.570Z,61.37
2019-01-16T16:34:03.103Z,61.25
2019-01-16T16:36:47.094Z,62.05
2019-01-16T16:39:50.470Z,62.62
2019-01-16T16:42:30.008Z,63.00
2019-01-16T16:45:27.361Z,63.04
2019-01-16T16:48:26.542Z,63.52
2019-01-16T16:51:18.083Z,63.41
2019-01-16T16:54:14.045Z,63.40
2019-01-16T16:57:09.056Z,63.45
2019-01-16T16:59:47.692Z,63.69
2019-01-16T17:02:51.488Z,63.79
2019-01-16T17:05:44.709Z,63.83
2019-01-16T17:08:32.166Z,64.19
2019-01-16T17:11:32.317Z,63.69
2019-01-16T17:14:23.375Z,63.60
2019-01-16T17:17:10.143Z,63.57
2019-01-16T17:19:59.814Z,63.52
2019-01-16T17:22:51.079Z,63.55
2019-01-16T17:25:33.657Z,63.78
2019-01-16T17:28:21.871Z,63.51
2019-01-16T17:31:10.116Z,63.49
2019-01-16T17:34:04.287Z,63.77
2019-01-16T17:36:46.838Z,63.16
2019-01-16T17:39:53.306Z,63.44
2019-01-16T17:42:44.625Z,63.45
2019-01-16T17:45:36.132Z,63.84
2019-01-16T17:48:36.523Z,63.49
2019-01-16T17:51:27.578Z,63.85
2019-01-16T17:54:18.519Z,63.75
2019-01-16T17:57:05.404Z,63.91
2019-01-16T17:59:52.368Z,63.58
2019-01-16T18:02:48.838Z,64.26
2019-01-16T18:05:37.166Z,64.07
2019-01-16T18:08:24.574Z,64.32
2019-01-16T18:11:12.799Z,64.70
2019-01-16T18:13:57.462Z,64.51
2019-01-16T18:16:46.794Z,65.07
2019-01-16T18:19:33.919Z,64.62
2019-01-16T18:22:20.996Z,65.04
2019-01-16T18:25:08.029Z,65.24
2019-01-16T18:27:56.244Z,65.07
2019-01-16T18:30:59.553Z,65.18
2019-01-16T18:33:59.793Z,65.48
2019-01-16T18:36:51.912Z,65.28
2019-01-16T18:39:32.080Z,65.63
2019-01-16T18:42:29.508Z,65.51
2019-01-16T18:45:17.738Z,65.70
2019-01-16T18:48:04.632Z,65.70
2019-01-16T18:50:53.396Z,65.92
2019-01-16T18:53:48.288Z,65.82
2019-01-16T18:56:44.925Z,65.57
2019-01-16T18:59:39.306Z,65.97
2019-01-16T19:02:34.015Z,65.77
2019-01-16T19:05:20.539Z,65.93
2019-01-16T19:08:10.235Z,65.92
2019-01-16T19:11:03.184Z,65.98
2019-01-16T19:14:00.456Z,66.03
2019-01-16T19:16:47.820Z,66.15
2019-01-16T19:19:36.864Z,65.92
2019-01-16T19:22:35.465Z,66.37
2019-01-16T19:25:17.015Z,66.15
2019-01-16T19:28:05.471Z,66.01
2019-01-16T19:30:54.449Z,66.16
2019-01-16T19:33:52.793Z,65.93
2019-01-16T19:36:44.684Z,65.97
2019-01-16T19:39:51.425Z,65.99
2019-01-16T19:42:49.087Z,66.21
2019-01-16T19:45:40.182Z,66.47
2019-01-16T19:48:38.457Z,66.13
2019-01-16T19:51:29.571Z,65.89
2019-01-16T19:54:16.981Z,66.20
2019-01-16T19:57:04.187Z,66.24
2019-01-16T19:59:53.581Z,66.44
2019-01-16T20:02:40.883Z,66.65
2019-01-16T20:05:28.103Z,66.75
2019-01-16T20:08:28.656Z,66.55
2019-01-16T20:11:20.369Z,66.49
2019-01-16T20:14:10.137Z,66.98
2019-01-16T20:16:57.807Z,66.90
2019-01-16T20:19:41.825Z,66.77
2019-01-16T20:22:36.234Z,67.20
2019-01-16T20:25:29.577Z,67.22
2019-01-16T20:28:32.874Z,67.37
2019-01-16T20:31:20.079Z,67.68
2019-01-16T20:34:12.737Z,67.76
2019-01-16T20:36:59.722Z,68.02
2019-01-16T20:39:51.071Z,67.83
2019-01-16T20:42:36.908Z,67.85
2019-01-16T20:45:25.496Z,68.03
2019-01-16T20:48:12.740Z,67.60
2019-01-16T20:50:56.186Z,68.08
2019-01-16T20:53:44.716Z,68.00
2019-01-16T20:56:30.207Z,68.19
2019-01-16T20:59:17.600Z,68.66
2019-01-16T21:02:04.993Z,68.61
2019-01-16T21:05:08.672Z,68.20
2019-01-16T21:08:06.169Z,68.49
2019-01-16T21:10:43.257Z,68.08
2019-01-16T21:13:30.974Z,68.40
2019-01-16T21:16:10.910Z,68.19
2019-01-16T21:18:57.780Z,68.29
2019-01-16T21:21:54.962Z,68.12
2019-01-16T21:24:57.250Z,67.93
2019-01-16T21:27:44.322Z,67.92
2019-01-16T21:30:27.650Z,67.81
2019-01-16T21:33:36.054Z,67.90
2019-01-16T21:36:25.139Z,68.16
2019-01-16T21:39:31.894Z,68.08
2019-01-16T21:42:20.181Z,68.35
2019-01-16T21:45:07.328Z,68.37
2019-01-16T21:47:54.408Z,68.43
2019-01-16T21:50:41.927Z,68.08
2019-01-16T21:53:30.396Z,68.23
2019-01-16T21:56:31.391Z,68.36
2019-01-16T21:59:20.238Z,68.24
2019-01-16T22:02:11.207Z,68.37
2019-01-16T22:04:59.745Z,68.15
2019-01-16T22:07:54.266Z,68.31
2019-01-16T22:10:51.903Z,67.98
2019-01-16T22:13:49.495Z,67.83
2019-01-16T22:16:43.888Z,68.14
2019-01-16T22:19:30.860Z,67.54
2019-01-16T22:22:25.659Z,67.09
2019-01-16T22:25:05.948Z,67.28
2019-01-16T22:27:53.022Z,67.49
2019-01-16T22:30:53.767Z,66.99
2019-01-16T22:33:33.882Z,66.45
2019-01-16T22:36:22.102Z,66.71
2019-01-16T22:39:13.359Z,66.27
2019-01-16T22:42:00.159Z,66.65
2019-01-16T22:44:51.392Z,66.56
2019-01-16T22:47:42.518Z,66.38
2019-01-16T22:50:31.295Z,66.42
2019-01-16T22:53:19.544Z,66.51
2019-01-16T22:56:17.068Z,67.09
2019-01-16T22:59:14.419Z,66.94
2019-01-16T23:01:53.655Z,66.80
2019-01-16T23:04:43.347Z,66.65
2019-01-16T23:07:40.688Z,66.62
2019-01-16T23:10:29.159Z,66.50
2019-01-16T23:13:26.273Z,65.99
2019-01-16T23:16:13.346Z,66.64
2019-01-16T23:19:00.239Z,66.40
2019-01-16T23:21:47.219Z,66.20
2019-01-16T23:24:22.211Z,66.35
2019-01-16T23:27:19.000Z,66.50
2019-01-16T23:30:07.199Z,66.73
2019-01-16T23:33:01.504Z,66.34
2019-01-16T23:35:44.779Z,67.05
2019-01-16T23:38:34.165Z,66.65
2019-01-16T23:41:25.439Z,66.77
2019-01-16T23:44:13.702Z,66.31
2019-01-16T23:46:59.056Z,66.85
2019-01-16T23:49:59.649Z,66.71
2019-01-16T23:52:57.039Z,66.47
2019-01-16T23:55:41.012Z,66.63
2019-01-16T23:58:23.972Z,66.19
